sensor_id;sensor_type;location;lat;lon;timestamp;P1;durP1;ratioP1;P2;durP2;ratioP2
9124;SDS011;4597;48.730;9.114;2024-01-16T00:01:41;2.90;;;2.07;;
9124;SDS011;4597;48.730;9.114;2024-01-16T00:04:10;2.20;;;2.03;;
9124;SDS011;4597;48.730;9.114;2024-01-16T00:06:39;2.27;;;2.03;;
9124;SDS011;4597;48.730;9.114;2024-01-16T00:09:05;4.50;;;2.63;;
9124;SDS011;4597;48.730;9.114;2024-01-16T00:11:31;2.67;;;2.37;;
9124;SDS011;4597;48.730;9.114;2024-01-16T00:13:57;3.07;;;2.03;;
9124;SDS011;4597;48.730;9.114;2024-01-16T00:16:22;2.03;;;1.70;;
9124;SDS011;4597;48.730;9.114;2024-01-16T00:18:48;2.53;;;2.10;;
9124;SDS011;4597;48.730;9.114;2024-01-16T00:21:13;2.37;;;2.10;;
9124;SDS011;4597;48.730;9.114;2024-01-16T00:23:39;2.73;;;1.80;;
9124;SDS011;4597;48.730;9.114;2024-01-16T00:26:04;5.40;;;2.23;;
9124;SDS011;4597;48.730;9.114;2024-01-16T00:28:33;2.23;;;2.10;;
9124;SDS011;4597;48.730;9.114;2024-01-16T00:30:59;2.73;;;1.80;;
9124;SDS011;4597;48.730;9.114;2024-01-16T00:33:24;3.03;;;2.10;;
9124;SDS011;4597;48.730;9.114;2024-01-16T00:35:52;2.93;;;1.67;;
9124;SDS011;4597;48.730;9.114;2024-01-16T00:38:17;3.37;;;2.13;;
9124;SDS011;4597;48.730;9.114;2024-01-16T00:40:43;4.00;;;2.53;;
9124;SDS011;4597;48.730;9.114;2024-01-16T00:43:08;3.23;;;2.40;;
9124;SDS011;4597;48.730;9.114;2024-01-16T00:45:34;6.67;;;1.87;;
9124;SDS011;4597;48.730;9.114;2024-01-16T00:47:59;2.87;;;1.93;;
9124;SDS011;4597;48.730;9.114;2024-01-16T00:50:25;3.37;;;2.23;;
9124;SDS011;4597;48.730;9.114;2024-01-16T00:52:51;2.53;;;2.00;;
9124;SDS011;4597;48.730;9.114;2024-01-16T00:55:17;8.27;;;2.23;;
9124;SDS011;4597;48.730;9.114;2024-01-16T00:57:42;3.93;;;2.20;;
9124;SDS011;4597;48.730;9.114;2024-01-16T01:00:08;6.13;;;2.50;;
9124;SDS011;4597;48.730;9.114;2024-01-16T01:02:34;3.17;;;2.27;;
9124;SDS011;4597;48.730;9.114;2024-01-16T01:05:00;2.77;;;2.13;;
9124;SDS011;4597;48.730;9.114;2024-01-16T01:07:25;2.50;;;1.93;;
9124;SDS011;4597;48.730;9.114;2024-01-16T01:09:52;3.63;;;2.17;;
9124;SDS011;4597;48.730;9.114;2024-01-16T01:12:17;2.27;;;2.00;;
9124;SDS011;4597;48.730;9.114;2024-01-16T01:14:43;3.43;;;2.10;;
9124;SDS011;4597;48.730;9.114;2024-01-16T01:17:08;3.03;;;1.97;;
9124;SDS011;4597;48.730;9.114;2024-01-16T01:19:34;2.37;;;2.20;;
9124;SDS011;4597;48.730;9.114;2024-01-16T01:21:59;4.20;;;2.20;;
9124;SDS011;4597;48.730;9.114;2024-01-16T01:24:24;3.90;;;2.00;;
9124;SDS011;4597;48.730;9.114;2024-01-16T01:26:50;1.83;;;1.73;;
9124;SDS011;4597;48.730;9.114;2024-01-16T01:29:15;1.93;;;1.83;;
9124;SDS011;4597;48.730;9.114;2024-01-16T01:31:44;2.73;;;2.20;;
9124;SDS011;4597;48.730;9.114;2024-01-16T01:34:12;2.77;;;2.10;;
9124;SDS011;4597;48.730;9.114;2024-01-16T01:36:37;2.57;;;1.97;;
9124;SDS011;4597;48.730;9.114;2024-01-16T01:39:03;2.93;;;2.00;;
9124;SDS011;4597;48.730;9.114;2024-01-16T01:41:28;3.73;;;2.10;;
9124;SDS011;4597;48.730;9.114;2024-01-16T01:43:54;4.33;;;2.47;;
9124;SDS011;4597;48.730;9.114;2024-01-16T01:46:19;4.20;;;2.30;;
9124;SDS011;4597;48.730;9.114;2024-01-16T01:48:47;2.43;;;2.07;;
9124;SDS011;4597;48.730;9.114;2024-01-16T01:51:13;2.30;;;1.97;;
9124;SDS011;4597;48.730;9.114;2024-01-16T01:53:42;2.73;;;1.90;;
9124;SDS011;4597;48.730;9.114;2024-01-16T01:56:10;2.67;;;1.70;;
9124;SDS011;4597;48.730;9.114;2024-01-16T01:58:38;2.10;;;1.90;;
9124;SDS011;4597;48.730;9.114;2024-01-16T02:01:06;2.47;;;1.80;;
9124;SDS011;4597;48.730;9.114;2024-01-16T02:03:44;4.53;;;2.03;;
9124;SDS011;4597;48.730;9.114;2024-01-16T02:06:13;2.17;;;2.00;;
9124;SDS011;4597;48.730;9.114;2024-01-16T02:08:41;3.07;;;1.97;;
9124;SDS011;4597;48.730;9.114;2024-01-16T02:11:07;2.77;;;2.57;;
9124;SDS011;4597;48.730;9.114;2024-01-16T02:13:33;3.77;;;2.13;;
9124;SDS011;4597;48.730;9.114;2024-01-16T02:15:59;3.63;;;1.97;;
9124;SDS011;4597;48.730;9.114;2024-01-16T02:18:25;2.47;;;1.97;;
9124;SDS011;4597;48.730;9.114;2024-01-16T02:20:51;2.83;;;2.50;;
9124;SDS011;4597;48.730;9.114;2024-01-16T02:23:21;3.03;;;2.03;;
9124;SDS011;4597;48.730;9.114;2024-01-16T02:25:51;3.40;;;1.80;;
9124;SDS011;4597;48.730;9.114;2024-01-16T02:28:17;4.63;;;1.93;;
9124;SDS011;4597;48.730;9.114;2024-01-16T02:30:42;3.93;;;2.30;;
9124;SDS011;4597;48.730;9.114;2024-01-16T02:33:08;2.70;;;2.00;;
9124;SDS011;4597;48.730;9.114;2024-01-16T02:35:33;1.63;;;1.53;;
9124;SDS011;4597;48.730;9.114;2024-01-16T02:37:59;2.87;;;1.80;;
9124;SDS011;4597;48.730;9.114;2024-01-16T02:40:25;3.37;;;2.53;;
9124;SDS011;4597;48.730;9.114;2024-01-16T02:42:51;2.40;;;1.93;;
9124;SDS011;4597;48.730;9.114;2024-01-16T02:45:17;4.97;;;2.63;;
9124;SDS011;4597;48.730;9.114;2024-01-16T02:47:42;2.20;;;2.00;;
9124;SDS011;4597;48.730;9.114;2024-01-16T02:50:08;4.73;;;2.07;;
9124;SDS011;4597;48.730;9.114;2024-01-16T02:52:36;2.43;;;2.20;;
9124;SDS011;4597;48.730;9.114;2024-01-16T02:55:02;2.73;;;2.27;;
9124;SDS011;4597;48.730;9.114;2024-01-16T02:57:28;2.23;;;2.00;;
9124;SDS011;4597;48.730;9.114;2024-01-16T02:59:53;2.07;;;1.90;;
9124;SDS011;4597;48.730;9.114;2024-01-16T03:02:19;4.23;;;2.47;;
9124;SDS011;4597;48.730;9.114;2024-01-16T03:04:44;2.03;;;1.87;;
9124;SDS011;4597;48.730;9.114;2024-01-16T03:07:10;3.47;;;2.37;;
9124;SDS011;4597;48.730;9.114;2024-01-16T03:09:35;3.43;;;2.10;;
9124;SDS011;4597;48.730;9.114;2024-01-16T03:12:01;2.17;;;1.97;;
9124;SDS011;4597;48.730;9.114;2024-01-16T03:14:27;4.07;;;2.87;;
9124;SDS011;4597;48.730;9.114;2024-01-16T03:16:53;2.37;;;1.90;;
9124;SDS011;4597;48.730;9.114;2024-01-16T03:19:18;2.33;;;2.10;;
9124;SDS011;4597;48.730;9.114;2024-01-16T03:21:44;3.67;;;2.13;;
9124;SDS011;4597;48.730;9.114;2024-01-16T03:24:09;2.20;;;2.00;;
9124;SDS011;4597;48.730;9.114;2024-01-16T03:26:37;2.33;;;2.07;;
9124;SDS011;4597;48.730;9.114;2024-01-16T03:29:03;2.10;;;1.97;;
9124;SDS011;4597;48.730;9.114;2024-01-16T03:31:29;3.20;;;2.00;;
9124;SDS011;4597;48.730;9.114;2024-01-16T03:33:55;3.53;;;2.80;;
9124;SDS011;4597;48.730;9.114;2024-01-16T03:36:20;2.70;;;2.50;;
9124;SDS011;4597;48.730;9.114;2024-01-16T03:38:46;2.70;;;2.13;;
9124;SDS011;4597;48.730;9.114;2024-01-16T03:41:11;3.23;;;2.20;;
9124;SDS011;4597;48.730;9.114;2024-01-16T03:43:37;3.40;;;2.20;;
9124;SDS011;4597;48.730;9.114;2024-01-16T03:46:02;3.17;;;2.20;;
9124;SDS011;4597;48.730;9.114;2024-01-16T03:48:28;3.63;;;2.00;;
9124;SDS011;4597;48.730;9.114;2024-01-16T03:50:54;2.93;;;2.03;;
9124;SDS011;4597;48.730;9.114;2024-01-16T03:53:20;3.60;;;2.60;;
9124;SDS011;4597;48.730;9.114;2024-01-16T03:55:46;2.03;;;1.77;;
9124;SDS011;4597;48.730;9.114;2024-01-16T03:58:12;2.73;;;1.83;;
9124;SDS011;4597;48.730;9.114;2024-01-16T04:00:38;3.43;;;2.57;;
9124;SDS011;4597;48.730;9.114;2024-01-16T04:03:03;2.17;;;1.93;;
9124;SDS011;4597;48.730;9.114;2024-01-16T04:05:29;5.80;;;2.03;;
9124;SDS011;4597;48.730;9.114;2024-01-16T04:07:56;3.40;;;1.87;;
9124;SDS011;4597;48.730;9.114;2024-01-16T04:10:22;2.33;;;2.00;;
9124;SDS011;4597;48.730;9.114;2024-01-16T04:12:47;2.60;;;1.87;;
9124;SDS011;4597;48.730;9.114;2024-01-16T04:15:13;2.60;;;2.03;;
9124;SDS011;4597;48.730;9.114;2024-01-16T04:17:38;3.10;;;2.03;;
9124;SDS011;4597;48.730;9.114;2024-01-16T04:20:04;2.93;;;1.90;;
9124;SDS011;4597;48.730;9.114;2024-01-16T04:22:31;2.37;;;2.00;;
9124;SDS011;4597;48.730;9.114;2024-01-16T04:24:57;1.70;;;1.60;;
9124;SDS011;4597;48.730;9.114;2024-01-16T04:27:23;3.10;;;2.00;;
9124;SDS011;4597;48.730;9.114;2024-01-16T04:29:50;3.43;;;2.63;;
9124;SDS011;4597;48.730;9.114;2024-01-16T04:32:15;3.87;;;1.93;;
9124;SDS011;4597;48.730;9.114;2024-01-16T04:34:41;1.93;;;1.83;;
9124;SDS011;4597;48.730;9.114;2024-01-16T04:37:06;2.13;;;1.70;;
9124;SDS011;4597;48.730;9.114;2024-01-16T04:39:32;3.77;;;2.03;;
9124;SDS011;4597;48.730;9.114;2024-01-16T04:41:57;4.27;;;2.17;;
9124;SDS011;4597;48.730;9.114;2024-01-16T04:44:23;2.53;;;2.13;;
9124;SDS011;4597;48.730;9.114;2024-01-16T04:46:49;3.03;;;2.13;;
9124;SDS011;4597;48.730;9.114;2024-01-16T04:49:14;5.87;;;2.73;;
9124;SDS011;4597;48.730;9.114;2024-01-16T04:51:40;2.20;;;1.70;;
9124;SDS011;4597;48.730;9.114;2024-01-16T04:54:05;2.90;;;2.40;;
9124;SDS011;4597;48.730;9.114;2024-01-16T04:56:32;5.13;;;2.57;;
9124;SDS011;4597;48.730;9.114;2024-01-16T04:58:57;2.20;;;2.00;;
9124;SDS011;4597;48.730;9.114;2024-01-16T05:01:23;2.67;;;2.20;;
9124;SDS011;4597;48.730;9.114;2024-01-16T05:03:50;3.97;;;2.10;;
9124;SDS011;4597;48.730;9.114;2024-01-16T05:06:15;2.90;;;2.00;;
9124;SDS011;4597;48.730;9.114;2024-01-16T05:08:41;2.07;;;1.93;;
9124;SDS011;4597;48.730;9.114;2024-01-16T05:11:07;3.00;;;2.10;;
9124;SDS011;4597;48.730;9.114;2024-01-16T05:13:33;2.00;;;1.87;;
9124;SDS011;4597;48.730;9.114;2024-01-16T05:15:59;4.73;;;2.23;;
9124;SDS011;4597;48.730;9.114;2024-01-16T05:18:24;2.40;;;1.77;;
9124;SDS011;4597;48.730;9.114;2024-01-16T05:20:50;5.80;;;2.20;;
9124;SDS011;4597;48.730;9.114;2024-01-16T05:23:15;1.80;;;1.63;;
9124;SDS011;4597;48.730;9.114;2024-01-16T05:25:41;3.33;;;2.20;;
9124;SDS011;4597;48.730;9.114;2024-01-16T05:28:06;3.30;;;2.17;;
9124;SDS011;4597;48.730;9.114;2024-01-16T05:30:32;4.13;;;2.07;;
9124;SDS011;4597;48.730;9.114;2024-01-16T05:32:58;2.60;;;2.20;;
9124;SDS011;4597;48.730;9.114;2024-01-16T05:35:26;2.37;;;2.10;;
9124;SDS011;4597;48.730;9.114;2024-01-16T05:37:52;3.90;;;2.23;;
9124;SDS011;4597;48.730;9.114;2024-01-16T05:40:18;3.03;;;1.93;;
9124;SDS011;4597;48.730;9.114;2024-01-16T05:42:44;3.33;;;2.17;;
9124;SDS011;4597;48.730;9.114;2024-01-16T05:45:09;3.93;;;2.07;;
9124;SDS011;4597;48.730;9.114;2024-01-16T05:47:35;3.43;;;2.23;;
9124;SDS011;4597;48.730;9.114;2024-01-16T05:50:00;4.77;;;2.13;;
9124;SDS011;4597;48.730;9.114;2024-01-16T05:52:25;2.77;;;1.93;;
9124;SDS011;4597;48.730;9.114;2024-01-16T05:54:51;4.37;;;2.60;;
9124;SDS011;4597;48.730;9.114;2024-01-16T05:57:16;4.90;;;2.70;;
9124;SDS011;4597;48.730;9.114;2024-01-16T05:59:42;5.93;;;3.50;;
9124;SDS011;4597;48.730;9.114;2024-01-16T06:02:07;3.10;;;2.30;;
9124;SDS011;4597;48.730;9.114;2024-01-16T06:04:33;2.80;;;2.00;;
9124;SDS011;4597;48.730;9.114;2024-01-16T06:06:58;2.23;;;2.10;;
9124;SDS011;4597;48.730;9.114;2024-01-16T06:09:24;2.77;;;1.70;;
9124;SDS011;4597;48.730;9.114;2024-01-16T06:11:49;2.27;;;2.00;;
9124;SDS011;4597;48.730;9.114;2024-01-16T06:14:15;2.77;;;2.13;;
9124;SDS011;4597;48.730;9.114;2024-01-16T06:16:46;2.57;;;2.10;;
9124;SDS011;4597;48.730;9.114;2024-01-16T06:19:12;3.80;;;2.07;;
9124;SDS011;4597;48.730;9.114;2024-01-16T06:21:37;2.43;;;2.27;;
9124;SDS011;4597;48.730;9.114;2024-01-16T06:24:04;2.27;;;2.13;;
9124;SDS011;4597;48.730;9.114;2024-01-16T06:26:30;2.73;;;2.20;;
9124;SDS011;4597;48.730;9.114;2024-01-16T06:28:56;3.97;;;2.70;;
9124;SDS011;4597;48.730;9.114;2024-01-16T06:31:22;3.43;;;2.63;;
9124;SDS011;4597;48.730;9.114;2024-01-16T06:33:49;4.07;;;3.30;;
9124;SDS011;4597;48.730;9.114;2024-01-16T06:36:15;3.23;;;2.90;;
9124;SDS011;4597;48.730;9.114;2024-01-16T06:38:41;2.63;;;1.93;;
9124;SDS011;4597;48.730;9.114;2024-01-16T06:41:06;2.80;;;2.40;;
9124;SDS011;4597;48.730;9.114;2024-01-16T06:43:32;5.67;;;2.13;;
9124;SDS011;4597;48.730;9.114;2024-01-16T06:45:57;3.50;;;2.33;;
9124;SDS011;4597;48.730;9.114;2024-01-16T06:48:23;4.10;;;2.40;;
9124;SDS011;4597;48.730;9.114;2024-01-16T06:50:49;2.63;;;2.37;;
9124;SDS011;4597;48.730;9.114;2024-01-16T06:53:15;3.20;;;2.43;;
9124;SDS011;4597;48.730;9.114;2024-01-16T06:55:40;2.60;;;2.37;;
9124;SDS011;4597;48.730;9.114;2024-01-16T06:58:05;2.63;;;2.20;;
9124;SDS011;4597;48.730;9.114;2024-01-16T07:00:31;2.60;;;2.40;;
9124;SDS011;4597;48.730;9.114;2024-01-16T07:02:57;4.10;;;1.87;;
9124;SDS011;4597;48.730;9.114;2024-01-16T07:05:23;2.20;;;1.73;;
9124;SDS011;4597;48.730;9.114;2024-01-16T07:07:48;2.63;;;1.80;;
9124;SDS011;4597;48.730;9.114;2024-01-16T07:10:14;4.73;;;2.00;;
9124;SDS011;4597;48.730;9.114;2024-01-16T07:12:46;1.83;;;1.73;;
9124;SDS011;4597;48.730;9.114;2024-01-16T07:15:12;4.23;;;2.40;;
9124;SDS011;4597;48.730;9.114;2024-01-16T07:17:38;5.30;;;2.53;;
9124;SDS011;4597;48.730;9.114;2024-01-16T07:20:04;1.90;;;1.80;;
9124;SDS011;4597;48.730;9.114;2024-01-16T07:22:30;2.13;;;1.73;;
9124;SDS011;4597;48.730;9.114;2024-01-16T07:24:55;2.83;;;1.90;;
9124;SDS011;4597;48.730;9.114;2024-01-16T07:27:21;4.37;;;2.20;;
9124;SDS011;4597;48.730;9.114;2024-01-16T07:29:46;4.20;;;1.93;;
9124;SDS011;4597;48.730;9.114;2024-01-16T07:32:12;3.47;;;2.17;;
9124;SDS011;4597;48.730;9.114;2024-01-16T07:34:37;4.70;;;2.43;;
9124;SDS011;4597;48.730;9.114;2024-01-16T07:37:03;3.17;;;2.60;;
9124;SDS011;4597;48.730;9.114;2024-01-16T07:39:28;4.53;;;3.07;;
9124;SDS011;4597;48.730;9.114;2024-01-16T07:41:54;5.30;;;2.27;;
9124;SDS011;4597;48.730;9.114;2024-01-16T07:44:19;5.63;;;2.60;;
9124;SDS011;4597;48.730;9.114;2024-01-16T07:46:45;3.80;;;2.43;;
9124;SDS011;4597;48.730;9.114;2024-01-16T07:49:10;2.43;;;2.13;;
9124;SDS011;4597;48.730;9.114;2024-01-16T07:51:36;5.83;;;2.10;;
9124;SDS011;4597;48.730;9.114;2024-01-16T07:54:05;2.83;;;2.30;;
9124;SDS011;4597;48.730;9.114;2024-01-16T07:56:32;1.73;;;1.63;;
9124;SDS011;4597;48.730;9.114;2024-01-16T07:58:58;3.67;;;1.90;;
9124;SDS011;4597;48.730;9.114;2024-01-16T08:01:24;2.23;;;2.03;;
9124;SDS011;4597;48.730;9.114;2024-01-16T08:03:49;2.47;;;1.60;;
9124;SDS011;4597;48.730;9.114;2024-01-16T08:06:15;2.20;;;2.00;;
9124;SDS011;4597;48.730;9.114;2024-01-16T08:08:40;2.33;;;2.13;;
9124;SDS011;4597;48.730;9.114;2024-01-16T08:11:06;4.43;;;2.40;;
9124;SDS011;4597;48.730;9.114;2024-01-16T08:13:32;4.23;;;2.00;;
9124;SDS011;4597;48.730;9.114;2024-01-16T08:15:58;2.17;;;2.03;;
9124;SDS011;4597;48.730;9.114;2024-01-16T08:18:23;3.03;;;1.97;;
9124;SDS011;4597;48.730;9.114;2024-01-16T08:20:49;4.43;;;2.40;;
9124;SDS011;4597;48.730;9.114;2024-01-16T08:23:15;3.17;;;2.00;;
9124;SDS011;4597;48.730;9.114;2024-01-16T08:25:40;3.13;;;1.63;;
9124;SDS011;4597;48.730;9.114;2024-01-16T08:28:05;2.43;;;1.60;;
9124;SDS011;4597;48.730;9.114;2024-01-16T08:30:31;1.70;;;1.60;;
9124;SDS011;4597;48.730;9.114;2024-01-16T08:32:56;3.70;;;2.90;;
9124;SDS011;4597;48.730;9.114;2024-01-16T08:35:22;4.47;;;2.33;;
9124;SDS011;4597;48.730;9.114;2024-01-16T08:37:48;4.40;;;2.40;;
9124;SDS011;4597;48.730;9.114;2024-01-16T08:40:14;4.80;;;2.03;;
9124;SDS011;4597;48.730;9.114;2024-01-16T08:42:40;2.80;;;1.77;;
9124;SDS011;4597;48.730;9.114;2024-01-16T08:45:06;2.13;;;1.90;;
9124;SDS011;4597;48.730;9.114;2024-01-16T08:47:32;2.27;;;1.70;;
9124;SDS011;4597;48.730;9.114;2024-01-16T08:49:57;2.27;;;1.90;;
9124;SDS011;4597;48.730;9.114;2024-01-16T08:52:23;2.97;;;2.30;;
9124;SDS011;4597;48.730;9.114;2024-01-16T08:54:48;2.37;;;1.93;;
9124;SDS011;4597;48.730;9.114;2024-01-16T08:57:14;2.77;;;2.00;;
9124;SDS011;4597;48.730;9.114;2024-01-16T08:59:40;2.17;;;1.97;;
9124;SDS011;4597;48.730;9.114;2024-01-16T09:02:06;2.70;;;2.37;;
9124;SDS011;4597;48.730;9.114;2024-01-16T09:04:31;4.07;;;2.50;;
9124;SDS011;4597;48.730;9.114;2024-01-16T09:06:57;4.43;;;2.20;;
9124;SDS011;4597;48.730;9.114;2024-01-16T09:09:22;2.03;;;1.83;;
9124;SDS011;4597;48.730;9.114;2024-01-16T09:11:48;3.20;;;1.90;;
9124;SDS011;4597;48.730;9.114;2024-01-16T09:14:13;4.07;;;2.53;;
9124;SDS011;4597;48.730;9.114;2024-01-16T09:16:39;3.53;;;2.60;;
9124;SDS011;4597;48.730;9.114;2024-01-16T09:19:05;3.37;;;1.97;;
9124;SDS011;4597;48.730;9.114;2024-01-16T09:21:31;3.90;;;2.00;;
9124;SDS011;4597;48.730;9.114;2024-01-16T09:23:57;3.97;;;1.93;;
9124;SDS011;4597;48.730;9.114;2024-01-16T09:26:22;2.47;;;2.03;;
9124;SDS011;4597;48.730;9.114;2024-01-16T09:28:48;3.33;;;1.90;;
9124;SDS011;4597;48.730;9.114;2024-01-16T09:31:15;5.73;;;2.03;;
9124;SDS011;4597;48.730;9.114;2024-01-16T09:33:41;3.07;;;2.17;;
9124;SDS011;4597;48.730;9.114;2024-01-16T09:36:08;2.17;;;2.00;;
9124;SDS011;4597;48.730;9.114;2024-01-16T09:38:34;2.17;;;1.70;;
9124;SDS011;4597;48.730;9.114;2024-01-16T09:40:59;2.50;;;2.27;;
9124;SDS011;4597;48.730;9.114;2024-01-16T09:43:26;4.00;;;1.90;;
9124;SDS011;4597;48.730;9.114;2024-01-16T09:45:53;3.63;;;2.23;;
9124;SDS011;4597;48.730;9.114;2024-01-16T09:48:20;2.27;;;1.77;;
9124;SDS011;4597;48.730;9.114;2024-01-16T09:50:46;2.37;;;2.17;;
9124;SDS011;4597;48.730;9.114;2024-01-16T09:53:12;3.77;;;1.87;;
9124;SDS011;4597;48.730;9.114;2024-01-16T09:55:38;1.83;;;1.73;;
9124;SDS011;4597;48.730;9.114;2024-01-16T09:58:03;2.20;;;2.00;;
9124;SDS011;4597;48.730;9.114;2024-01-16T10:00:33;2.33;;;2.13;;
9124;SDS011;4597;48.730;9.114;2024-01-16T10:03:00;2.43;;;1.73;;
9124;SDS011;4597;48.730;9.114;2024-01-16T10:05:26;1.87;;;1.57;;
9124;SDS011;4597;48.730;9.114;2024-01-16T10:07:52;3.17;;;2.03;;
9124;SDS011;4597;48.730;9.114;2024-01-16T10:10:17;2.17;;;2.07;;
9124;SDS011;4597;48.730;9.114;2024-01-16T10:12:44;1.73;;;1.63;;
9124;SDS011;4597;48.730;9.114;2024-01-16T10:15:09;2.63;;;1.87;;
9124;SDS011;4597;48.730;9.114;2024-01-16T10:17:39;2.07;;;1.60;;
9124;SDS011;4597;48.730;9.114;2024-01-16T10:20:06;1.90;;;1.80;;
9124;SDS011;4597;48.730;9.114;2024-01-16T10:22:32;4.50;;;1.80;;
9124;SDS011;4597;48.730;9.114;2024-01-16T10:25:31;2.20;;;1.73;;
9124;SDS011;4597;48.730;9.114;2024-01-16T10:27:50;1.80;;;1.50;;
9124;SDS011;4597;48.730;9.114;2024-01-16T10:30:28;1.70;;;1.60;;
9124;SDS011;4597;48.730;9.114;2024-01-16T10:32:54;1.50;;;1.40;;
9124;SDS011;4597;48.730;9.114;2024-01-16T10:35:20;1.97;;;1.77;;
9124;SDS011;4597;48.730;9.114;2024-01-16T10:37:49;1.93;;;1.80;;
9124;SDS011;4597;48.730;9.114;2024-01-16T10:40:16;2.57;;;2.00;;
9124;SDS011;4597;48.730;9.114;2024-01-16T10:42:43;3.90;;;2.00;;
9124;SDS011;4597;48.730;9.114;2024-01-16T10:45:16;4.50;;;2.20;;
9124;SDS011;4597;48.730;9.114;2024-01-16T10:47:47;3.77;;;2.67;;
9124;SDS011;4597;48.730;9.114;2024-01-16T10:50:13;3.03;;;2.00;;
9124;SDS011;4597;48.730;9.114;2024-01-16T10:52:42;2.93;;;2.30;;
9124;SDS011;4597;48.730;9.114;2024-01-16T10:55:12;4.47;;;2.90;;
9124;SDS011;4597;48.730;9.114;2024-01-16T10:57:44;2.13;;;2.03;;
9124;SDS011;4597;48.730;9.114;2024-01-16T11:00:10;1.73;;;1.63;;
9124;SDS011;4597;48.730;9.114;2024-01-16T11:02:43;1.63;;;1.50;;
9124;SDS011;4597;48.730;9.114;2024-01-16T11:05:14;2.17;;;1.97;;
9124;SDS011;4597;48.730;9.114;2024-01-16T11:07:42;1.73;;;1.63;;
9124;SDS011;4597;48.730;9.114;2024-01-16T11:10:09;1.97;;;1.77;;
9124;SDS011;4597;48.730;9.114;2024-01-16T11:12:35;1.83;;;1.73;;
9124;SDS011;4597;48.730;9.114;2024-01-16T11:15:05;2.97;;;1.83;;
9124;SDS011;4597;48.730;9.114;2024-01-16T11:17:33;1.53;;;1.43;;
9124;SDS011;4597;48.730;9.114;2024-01-16T11:20:02;2.03;;;1.90;;
9124;SDS011;4597;48.730;9.114;2024-01-16T11:22:34;1.37;;;1.27;;
9124;SDS011;4597;48.730;9.114;2024-01-16T11:25:10;1.50;;;1.40;;
9124;SDS011;4597;48.730;9.114;2024-01-16T11:27:37;1.73;;;1.63;;
9124;SDS011;4597;48.730;9.114;2024-01-16T11:30:04;2.30;;;1.60;;
9124;SDS011;4597;48.730;9.114;2024-01-16T11:32:42;1.10;;;1.10;;
9124;SDS011;4597;48.730;9.114;2024-01-16T11:35:10;1.17;;;1.10;;
9124;SDS011;4597;48.730;9.114;2024-01-16T11:37:36;1.83;;;1.40;;
9124;SDS011;4597;48.730;9.114;2024-01-16T11:42:45;1.87;;;1.27;;
9124;SDS011;4597;48.730;9.114;2024-01-16T11:46:12;1.40;;;1.30;;
9124;SDS011;4597;48.730;9.114;2024-01-16T11:48:13;2.20;;;1.73;;
9124;SDS011;4597;48.730;9.114;2024-01-16T11:50:40;2.47;;;2.27;;
9124;SDS011;4597;48.730;9.114;2024-01-16T11:53:06;3.30;;;2.00;;
9124;SDS011;4597;48.730;9.114;2024-01-16T11:55:32;4.07;;;2.20;;
9124;SDS011;4597;48.730;9.114;2024-01-16T12:00:47;1.20;;;1.10;;
9124;SDS011;4597;48.730;9.114;2024-01-16T12:03:18;1.40;;;0.93;;
9124;SDS011;4597;48.730;9.114;2024-01-16T12:05:58;0.90;;;0.90;;
9124;SDS011;4597;48.730;9.114;2024-01-16T12:08:24;0.90;;;0.90;;
9124;SDS011;4597;48.730;9.114;2024-01-16T12:10:50;1.00;;;1.00;;
9124;SDS011;4597;48.730;9.114;2024-01-16T12:13:16;1.30;;;1.20;;
9124;SDS011;4597;48.730;9.114;2024-01-16T12:15:41;0.90;;;0.90;;
9124;SDS011;4597;48.730;9.114;2024-01-16T12:18:08;0.70;;;0.70;;
9124;SDS011;4597;48.730;9.114;2024-01-16T12:20:34;1.23;;;1.10;;
9124;SDS011;4597;48.730;9.114;2024-01-16T12:23:02;1.10;;;1.00;;
9124;SDS011;4597;48.730;9.114;2024-01-16T12:25:29;2.20;;;1.10;;
9124;SDS011;4597;48.730;9.114;2024-01-16T12:30:32;0.77;;;0.77;;
9124;SDS011;4597;48.730;9.114;2024-01-16T12:35:35;1.47;;;1.10;;
9124;SDS011;4597;48.730;9.114;2024-01-16T12:38:02;1.37;;;1.00;;
9124;SDS011;4597;48.730;9.114;2024-01-16T12:40:30;0.83;;;0.83;;
9124;SDS011;4597;48.730;9.114;2024-01-16T12:42:56;1.03;;;1.03;;
9124;SDS011;4597;48.730;9.114;2024-01-16T12:45:22;1.60;;;1.37;;
9124;SDS011;4597;48.730;9.114;2024-01-16T12:47:52;1.77;;;1.30;;
9124;SDS011;4597;48.730;9.114;2024-01-16T12:50:21;1.53;;;1.30;;
9124;SDS011;4597;48.730;9.114;2024-01-16T12:52:49;2.77;;;1.47;;
9124;SDS011;4597;48.730;9.114;2024-01-16T12:55:15;1.53;;;1.23;;
9124;SDS011;4597;48.730;9.114;2024-01-16T12:57:42;1.47;;;1.37;;
9124;SDS011;4597;48.730;9.114;2024-01-16T13:00:24;1.80;;;1.67;;
9124;SDS011;4597;48.730;9.114;2024-01-16T13:02:53;1.30;;;1.20;;
9124;SDS011;4597;48.730;9.114;2024-01-16T13:05:22;1.00;;;1.00;;
9124;SDS011;4597;48.730;9.114;2024-01-16T13:07:59;1.17;;;1.00;;
9124;SDS011;4597;48.730;9.114;2024-01-16T13:10:27;1.13;;;1.00;;
9124;SDS011;4597;48.730;9.114;2024-01-16T13:13:11;1.30;;;1.20;;
9124;SDS011;4597;48.730;9.114;2024-01-16T13:15:37;1.33;;;1.13;;
9124;SDS011;4597;48.730;9.114;2024-01-16T13:18:03;2.03;;;1.10;;
9124;SDS011;4597;48.730;9.114;2024-01-16T13:20:29;2.50;;;0.70;;
9124;SDS011;4597;48.730;9.114;2024-01-16T13:22:55;1.20;;;1.03;;
9124;SDS011;4597;48.730;9.114;2024-01-16T13:25:20;1.20;;;1.10;;
9124;SDS011;4597;48.730;9.114;2024-01-16T13:27:46;1.20;;;1.20;;
9124;SDS011;4597;48.730;9.114;2024-01-16T13:30:12;1.57;;;1.13;;
9124;SDS011;4597;48.730;9.114;2024-01-16T13:32:38;0.80;;;0.80;;
9124;SDS011;4597;48.730;9.114;2024-01-16T13:35:03;0.97;;;0.97;;
9124;SDS011;4597;48.730;9.114;2024-01-16T13:37:32;2.90;;;1.20;;
9124;SDS011;4597;48.730;9.114;2024-01-16T13:39:58;1.83;;;0.97;;
9124;SDS011;4597;48.730;9.114;2024-01-16T13:42:24;1.20;;;1.20;;
9124;SDS011;4597;48.730;9.114;2024-01-16T13:44:50;1.33;;;1.33;;
9124;SDS011;4597;48.730;9.114;2024-01-16T13:47:16;0.70;;;0.70;;
9124;SDS011;4597;48.730;9.114;2024-01-16T13:49:43;2.67;;;1.10;;
9124;SDS011;4597;48.730;9.114;2024-01-16T13:52:09;1.00;;;0.90;;
9124;SDS011;4597;48.730;9.114;2024-01-16T13:54:38;1.07;;;1.00;;
9124;SDS011;4597;48.730;9.114;2024-01-16T13:57:04;1.20;;;1.00;;
9124;SDS011;4597;48.730;9.114;2024-01-16T13:59:30;0.90;;;0.90;;
9124;SDS011;4597;48.730;9.114;2024-01-16T14:01:56;2.10;;;0.93;;
9124;SDS011;4597;48.730;9.114;2024-01-16T14:04:21;1.60;;;1.20;;
9124;SDS011;4597;48.730;9.114;2024-01-16T14:06:47;1.40;;;1.10;;
9124;SDS011;4597;48.730;9.114;2024-01-16T14:09:12;0.97;;;0.90;;
9124;SDS011;4597;48.730;9.114;2024-01-16T14:11:38;1.67;;;1.40;;
9124;SDS011;4597;48.730;9.114;2024-01-16T14:14:04;3.50;;;1.87;;
9124;SDS011;4597;48.730;9.114;2024-01-16T14:16:30;1.30;;;1.20;;
9124;SDS011;4597;48.730;9.114;2024-01-16T14:18:55;0.90;;;0.90;;
9124;SDS011;4597;48.730;9.114;2024-01-16T14:21:21;1.63;;;1.53;;
9124;SDS011;4597;48.730;9.114;2024-01-16T14:23:46;1.93;;;1.77;;
9124;SDS011;4597;48.730;9.114;2024-01-16T14:26:12;1.70;;;1.23;;
9124;SDS011;4597;48.730;9.114;2024-01-16T14:28:37;1.70;;;1.10;;
9124;SDS011;4597;48.730;9.114;2024-01-16T14:31:03;2.20;;;1.27;;
9124;SDS011;4597;48.730;9.114;2024-01-16T14:33:29;1.60;;;1.50;;
9124;SDS011;4597;48.730;9.114;2024-01-16T14:35:54;1.40;;;1.30;;
9124;SDS011;4597;48.730;9.114;2024-01-16T14:38:20;1.10;;;1.10;;
9124;SDS011;4597;48.730;9.114;2024-01-16T14:40:46;1.40;;;1.27;;
9124;SDS011;4597;48.730;9.114;2024-01-16T14:43:11;2.93;;;1.87;;
9124;SDS011;4597;48.730;9.114;2024-01-16T14:45:37;2.27;;;1.57;;
9124;SDS011;4597;48.730;9.114;2024-01-16T14:48:02;1.70;;;1.20;;
9124;SDS011;4597;48.730;9.114;2024-01-16T14:50:29;1.50;;;1.40;;
9124;SDS011;4597;48.730;9.114;2024-01-16T14:52:55;1.50;;;1.40;;
9124;SDS011;4597;48.730;9.114;2024-01-16T14:55:20;1.73;;;1.33;;
9124;SDS011;4597;48.730;9.114;2024-01-16T14:57:47;1.00;;;1.00;;
9124;SDS011;4597;48.730;9.114;2024-01-16T15:00:18;1.07;;;1.07;;
9124;SDS011;4597;48.730;9.114;2024-01-16T15:02:51;1.20;;;1.10;;
9124;SDS011;4597;48.730;9.114;2024-01-16T15:05:18;2.20;;;0.90;;
9124;SDS011;4597;48.730;9.114;2024-01-16T15:07:45;1.10;;;1.10;;
9124;SDS011;4597;48.730;9.114;2024-01-16T15:10:12;1.10;;;1.00;;
9124;SDS011;4597;48.730;9.114;2024-01-16T15:12:38;1.93;;;1.53;;
9124;SDS011;4597;48.730;9.114;2024-01-16T15:15:04;1.63;;;1.53;;
9124;SDS011;4597;48.730;9.114;2024-01-16T15:17:35;1.57;;;1.47;;
9124;SDS011;4597;48.730;9.114;2024-01-16T15:20:01;1.83;;;1.73;;
9124;SDS011;4597;48.730;9.114;2024-01-16T15:22:29;1.73;;;1.63;;